Data for 03/27/2013

Time Sea-Level Adjusted Pressure Absolute Pressure Temperature Relative Humidity Dew Point   
(mb) (inHg) (mb) (inHg) (C) (F) (%) (C) (F)
00:05 1016 30 845 24.95 1.2 34.1 49 -8.3 17
00:10 1016 30 845 24.95 1.2 34.2 47 -8.8 16.2
00:15 1016 30 845 24.95 1.4 34.4 48 -8.5 16.7
00:20 1016 30 845 24.95 1.2 34.2 49 -8.4 16.8
00:25 1016 30 845 24.95 1 33.7 51 -8 17.7
00:30 1016 30 845 24.95 0.5 32.9 54 -7.8 18
00:35 1016 30 845 24.95 0.2 32.4 56 -7.6 18.3
00:40 1016 30 845 24.95 -0.1 31.8 58 -7.5 18.6
00:45 1016 30 845 24.95 -0.4 31.2 59 -7.5 18.6
00:50 1016 30 845 24.95 -0.7 30.8 60 -7.4 18.6
00:55 1016 30 845 24.95 -0.8 30.6 61 -7.4 18.6
01:00 1016 30 845 24.95 -0.9 30.4 62 -7.3 18.8
01:05 1016 30 845 24.95 -0.9 30.3 62 -7.3 18.8
01:10 1016 30 845 24.95 -0.8 30.5 60 -7.7 18.2
01:15 1016 30 845 24.95 -0.5 31.2 59 -7.6 18.3
01:20 1016 30 845 24.95 -0.4 31.2 59 -7.5 18.5
01:25 1016 30 845 24.95 -0.6 30.8 61 -7.3 18.8
01:30 1016 30 845 24.95 -1 30.3 60 -7.8 17.9
01:35 1016 30 845 24.95 -0.8 30.6 59 -7.9 17.8
01:40 1016 30 845 24.95 -0.7 30.7 59 -7.9 17.9
01:45 1016 30 845 24.95 -0.3 31.5 56 -8.1 17.4
01:50 1016 30 845 24.95 -0.2 31.7 55 -8.1 17.5
01:55 1016 30 845 24.95 -0 31.9 55 -8.1 17.5
02:00 1016 30 845 24.95 0.2 32.4 54 -8.1 17.3
02:05 1016 30 845 24.95 0.1 32.2 55 -8 17.6
02:10 1016 30 845 24.95 -0.2 31.7 56 -8 17.6
02:15 1016 30 845 24.95 -0.3 31.5 56 -8.1 17.4
02:20 1016 30 845 24.95 -0.3 31.5 56 -8 17.6
02:25 1016 30 845 24.95 -0.5 31.1 57 -7.9 17.7
02:30 1016 30 845 24.95 -0.8 30.6 58 -8 17.6
02:35 1016 30 845 24.95 -0.9 30.3 58 -8.2 17.2
02:40 1016 30 845 24.95 -0.9 30.3 59 -8 17.6
02:45 1016 30 845 24.95 -1.1 30 59 -8.1 17.4
02:50 1016 30 845 24.95 -1 30.2 58 -8.2 17.3
02:55 1016 30 845 24.95 -0.9 30.3 58 -8.3 17.1
03:00 1016 30 845 24.95 -0.8 30.6 57 -8.3 17
03:05 1016 30 845 24.95 -0.8 30.6 57 -8.2 17.2
03:10 1016 30 845 24.95 -0.9 30.4 57 -8.3 17.1
03:15 1016 30 845 24.95 -0.9 30.3 58 -8.2 17.2
03:20 1016 30 845 24.95 -0.8 30.5 57 -8.4 16.8
03:25 1016 30 845 24.95 -0.7 30.8 56 -8.4 16.8
03:30 1016 30 845 24.95 -0.6 30.9 55 -8.5 16.7
03:35 1016 30 845 24.95 -0.5 31.2 55 -8.4 16.9
03:40 1016 30 845 24.95 -0.5 31.1 55 -8.5 16.7
03:45 1016 30 845 24.95 -0.6 31 56 -8.2 17.2
03:50 1016 30 845 24.95 -0.7 30.7 57 -8.1 17.4
03:55 1016 30 845 24.95 -0.8 30.6 57 -8.2 17.3
04:00 1016 30 845 24.95 -0.7 30.7 57 -8.2 17.2
04:05 1016 30 845 24.95 -0.6 30.9 56 -8.2 17.2
04:10 1016 30 845 24.95 -0.6 30.9 56 -8.4 16.9
04:15 1016 30 845 24.95 -0.5 31.2 56 -8.2 17.2
04:20 1016 30 845 24.95 -0.5 31.2 56 -8.2 17.2
04:25 1016 30 845 24.95 -0.6 30.9 57 -8.1 17.4
04:30 1016 30 845 24.95 -0.5 31.1 56 -8.3 17
04:35 1016 30 845 24.95 -0.4 31.3 56 -8.2 17.2
04:40 1016 30 845 24.95 -0.4 31.2 57 -8 17.6
04:45 1016 30 845 24.95 -0.6 30.9 57 -8.1 17.4
04:50 1016 30 845 24.95 -0.6 30.9 57 -8.2 17.2
04:55 1016 30 845 24.95 -0.7 30.8 57 -8.2 17.3
05:00 1016 30 846 24.98 -0.8 30.5 58 -8.1 17.4
05:05 1016 30 846 24.98 -1.2 29.9 59 -8.2 17.3
05:10 1016 30 846 24.98 -1.2 29.8 59 -8.2 17.3
05:15 1016 30 846 24.98 -1.1 30.1 58 -8.3 17.1
05:20 1016 30 846 24.98 -1 30.2 58 -8.2 17.2
05:25 1016 30 846 24.98 -1.3 29.7 60 -8.1 17.4
05:30 1016 30 846 24.98 -1.5 29.4 60 -8.3 17.1
05:35 1016 30 846 24.98 -1.4 29.4 60 -8.3 17.1
05:40 1016 30 846 24.98 -1.4 29.5 60 -8.2 17.2
05:45 1016 30 846 24.98 -1.3 29.6 59 -8.3 17
05:50 1016 30 846 24.98 -1.3 29.7 59 -8.2 17.3
05:55 1016 30 846 24.98 -1.4 29.5 60 -8.3 17.1
06:00 1016 30 846 24.98 -1.5 29.3 60 -8.2 17.2
06:05 1016 30 846 24.98 -1.4 29.5 60 -8.2 17.2
06:10 1017 30.03 846 24.98 -1.4 29.4 60 -8.2 17.3
06:15 1017 30.03 846 24.98 -1.6 29.2 60 -8.3 17
06:20 1017 30.03 846 24.98 -1.5 29.3 61 -8.2 17.3
06:25 1017 30.03 846 24.98 -1.4 29.4 60 -8.3 17
06:30 1017 30.03 846 24.98 -1.3 29.7 59 -8.3 17.1
06:35 1017 30.03 846 24.98 -1.2 29.9 58 -8.3 17
06:40 1017 30.03 846 24.98 -1.1 30.1 58 -8.4 16.9
06:45 1017 30.03 846 24.98 -0.7 30.7 56 -8.4 16.9
06:50 1017 30.03 846 24.98 -0.5 31.1 56 -8.3 17.1
06:55 1017 30.03 846 24.98 -0.4 31.3 56 -8.2 17.3
07:00 1017 30.03 846 24.98 -0.5 31.2 56 -8.1 17.4
07:05 1017 30.03 846 24.98 -0.3 31.4 55 -8.2 17.3
07:10 1017 30.03 846 24.98 -0.2 31.7 56 -8 17.6
07:15 1017 30.03 846 24.98 -0.1 31.9 55 -8.1 17.5
07:20 1017 30.03 846 24.98 -0 31.9 56 -7.9 17.8
07:25 1017 30.03 846 24.98 -0.2 31.7 56 -7.9 17.8
07:30 1017 30.03 846 24.98 -0.1 31.8 56 -7.9 17.8
07:35 1017 30.03 846 24.98 0.2 32.4 55 -7.9 17.8
07:40 1017 30.03 846 24.98 0.8 33.4 53 -7.8 17.9
07:45 1017 30.03 846 24.98 1.3 34.3 50 -8 17.6
07:50 1017 30.03 846 24.98 1.8 35.3 49 -7.8 17.9
07:55 1017 30.03 846 24.98 2 35.5 49 -7.8 18
08:00 1017 30.03 846 24.98 2.1 35.7 48 -7.7 18.1
08:05 1017 30.03 846 24.98 2.3 36.1 48 -7.6 18.3
08:10 1017 30.03 846 24.98 2.5 36.4 47 -7.6 18.3
08:15 1017 30.03 846 24.98 2.6 36.7 47 -7.6 18.4
08:20 1017 30.03 846 24.98 2.9 37.2 47 -7.3 18.8
08:25 1017 30.03 846 24.98 3.6 38.5 44 -7.4 18.7
08:30 1017 30.03 846 24.98 3.8 38.8 42 -7.8 17.9
08:35 1017 30.03 846 24.98 4.1 39.4 42 -7.6 18.3
08:40 1017 30.03 846 24.98 4.2 39.5 41 -7.9 17.7
08:45 1017 30.03 846 24.98 5.1 41.2 40 -7.5 18.4
08:50 1017 30.03 846 24.98 5 41.1 42 -6.9 19.5
08:55 1017 30.03 846 24.98 4.8 40.6 41 -7.3 18.9
09:00 1017 30.03 846 24.98 5.1 41.2 39 -7.7 18.1
09:05 1017 30.03 846 24.98 5.4 41.8 38 -7.7 18.1
09:10 1017 30.03 846 24.98 5.7 42.3 37 -7.8 17.9
09:15 1017 30.03 846 24.98 6.5 43.7 36 -7.7 18.2
09:20 1017 30.03 846 24.98 7.3 45.1 33 -7.9 17.8
09:25 1017 30.03 846 24.98 7.2 44.9 34 -7.8 18
09:30 1017 30.03 846 24.98 6.7 44.1 34 -8 17.5
09:35 1017 30.03 846 24.98 7 44.7 34 -7.8 17.9
09:40 1017 30.03 846 24.98 7.4 45.2 32 -8.1 17.4
09:45 1017 30.03 846 24.98 8 46.4 31 -7.9 17.7
09:50 1017 30.03 846 24.98 7.7 45.9 32 -7.7 18.1
09:55 1017 30.03 846 24.98 7.9 46.1 32 -7.7 18.2
10:00 1017 30.03 846 24.98 8 46.4 32 -7.6 18.4
10:05 1017 30.03 846 24.98 8.2 46.8 31 -7.9 17.8
10:10 1017 30.03 847 25.01 7.2 44.9 32 -8.3 17.1
10:15 1017 30.03 846 24.98 7.8 46 31 -8.1 17.4
10:20 1017 30.03 846 24.98 7.7 45.9 31 -8.2 17.3
10:25 1017 30.03 846 24.98 8.5 47.3 32 -7.1 19.3
10:30 1017 30.03 846 24.98 8 46.4 30 -8.4 17
10:35 1017 30.03 846 24.98 8.4 47.1 31 -7.7 18.1
10:40 1017 30.03 846 24.98 8.6 47.5 29 -8.2 17.2
10:45 1017 30.03 846 24.98 9.4 48.8 28 -8 17.6
10:50 1017 30.03 846 24.98 9.5 49.2 28 -8 17.6
10:55 1017 30.03 846 24.98 10.5 50.9 27 -7.7 18.2
11:00 1017 30.03 846 24.98 10.5 50.9 28 -7.1 19.1
11:05 1017 30.03 846 24.98 10.2 50.4 27 -7.8 17.9
11:10 1017 30.03 846 24.98 10.2 50.4 28 -7.5 18.6
11:15 1017 30.03 846 24.98 10 50.1 28 -7.5 18.4
11:20 1017 30.03 846 24.98 9.4 48.9 29 -7.6 18.3
11:25 1017 30.03 846 24.98 9.9 49.8 28 -7.6 18.4
11:30 1017 30.03 846 24.98 10.7 51.2 28 -7.3 18.9
11:35 1017 30.03 846 24.98 11.5 52.7 26 -7.5 18.4
11:40 1017 30.03 846 24.98 11.6 52.9 26 -7.3 18.8
11:45 1017 30.03 846 24.98 12.1 53.7 25 -7.3 18.8
11:50 1017 30.03 846 24.98 11.7 53.1 26 -7.3 18.9
11:55 1017 30.03 846 24.98 11.7 53 25 -7.5 18.6
12:00 1017 30.03 846 24.98 12 53.6 25 -7.4 18.7
12:05 1017 30.03 846 24.98 12.8 55 24 -7.3 18.9
12:10 1017 30.03 846 24.98 12.4 54.4 25 -7.1 19.2
12:15 1017 30.03 846 24.98 12.5 54.5 24 -7.3 18.8
12:20 1017 30.03 846 24.98 12.6 54.7 23 -7.8 17.9
12:25 1017 30.03 846 24.98 13.3 56 23 -7.2 19
12:30 1016 30 846 24.98 12.7 54.9 24 -7.5 18.4
12:35 1016 30 846 24.98 12.3 54.2 24 -7.5 18.5
12:40 1016 30 846 24.98 12.5 54.5 24 -7.5 18.4
12:45 1016 30 846 24.98 12.5 54.5 24 -7.4 18.7
12:50 1016 30 846 24.98 12.6 54.6 23 -7.8 18
12:55 1016 30 845 24.95 12.8 55 23 -7.6 18.3
13:00 1016 30 845 24.95 13.1 55.5 23 -7.6 18.2
13:05 1016 30 845 24.95 12.8 55 23 -8 17.6
13:10 1016 30 845 24.95 12.7 54.8 23 -8.1 17.4
13:15 1016 30 845 24.95 12.9 55.2 23 -7.9 17.8
13:20 1016 30 845 24.95 12.6 54.6 24 -7.5 18.5
13:25 1016 30 845 24.95 12.1 53.8 24 -7.7 18.1
13:30 1016 30 845 24.95 12.5 54.4 24 -7.7 18.2
13:35 1016 30 845 24.95 13.2 55.8 22 -7.9 17.7
13:40 1016 30 845 24.95 13.7 56.7 23 -7 19.4
13:45 1016 30 845 24.95 12.7 54.8 26 -6.3 20.6
13:50 1016 30 845 24.95 12.6 54.7 24 -7.4 18.7
13:55 1016 30 845 24.95 12.6 54.6 25 -7 19.4
14:00 1016 30 845 24.95 12 53.6 27 -6.5 20.3
14:05 1016 30 845 24.95 11.6 52.9 27 -6.9 19.6
14:10 1016 30 845 24.95 11.8 53.2 26 -6.9 19.6
14:15 1016 30 845 24.95 11.8 53.2 26 -6.9 19.6
14:20 1016 30 845 24.95 11.5 52.7 27 -6.9 19.5
14:25 1016 30 845 24.95 11.8 53.3 26 -6.8 19.8
14:30 1016 30 845 24.95 11.8 53.3 26 -6.8 19.8
14:35 1016 30 845 24.95 11.6 53 27 -6.8 19.8
14:40 1016 30 845 24.95 11.4 52.4 27 -6.8 19.7
14:45 1016 30 845 24.95 11.3 52.4 27 -6.9 19.6
14:50 1016 30 845 24.95 11.5 52.8 27 -7 19.4
14:55 1016 30 845 24.95 11.4 52.6 27 -6.9 19.5
15:00 1016 30 845 24.95 12 53.5 26 -6.8 19.8
15:05 1016 30 845 24.95 12.1 53.8 26 -6.6 20.1
15:10 1016 30 845 24.95 12.2 54 27 -6.3 20.6
15:15 1016 30 845 24.95 12 53.5 29 -5.6 22
15:20 1016 30 845 24.95 11.5 52.6 28 -6.3 20.7
15:25 1016 30 845 24.95 11.2 52.1 32 -4.9 23.1
15:30 1016 30 845 24.95 10.3 50.5 32 -5.7 21.8
15:35 1016 30 845 24.95 10.2 50.3 31 -6 21.2
15:40 1016 30 845 24.95 10.6 51.1 30 -6.1 21.1
15:45 1016 30 845 24.95 10.8 51.4 30 -6 21.2
15:50 1016 30 845 24.95 11.1 52 31 -5.5 22.1
15:55 1016 30 845 24.95 11.4 52.5 32 -4.8 23.3
16:00 1016 30 845 24.95 10.5 50.9 39 -2.7 27.2
16:05 1016 30 845 24.95 9.7 49.4 38 -4 24.8
16:10 1016 30 845 24.95 9.7 49.5 38 -4 24.9
16:15 1016 30 845 24.95 10.1 50.2 35 -4.6 23.8
16:20 1016 30 845 24.95 10.8 51.4 33 -4.8 23.3
16:25 1016 30 845 24.95 11 51.8 31 -5.3 22.5
16:30 1016 30 845 24.95 11.2 52.1 31 -5.3 22.5
16:35 1016 30 845 24.95 11.1 51.9 33 -4.6 23.6
16:40 1016 30 845 24.95 11.1 52 32 -5.1 22.8
16:45 1016 30 845 24.95 10.9 51.6 33 -4.8 23.4
16:50 1016 30 845 24.95 10.6 51.1 32 -5.3 22.4
16:55 1016 30 845 24.95 10.3 50.6 32 -5.6 21.9
17:00 1016 30 845 24.95 10.6 51 32 -5.3 22.4
17:05 1016 30 845 24.95 10.9 51.5 31 -5.5 22.1
17:10 1016 30 845 24.95 10.8 51.4 32 -5.1 22.8
17:15 1016 30 845 24.95 10.5 50.9 33 -5 23.1
17:20 1016 30 845 24.95 10.7 51.3 32 -5.2 22.6
17:25 1016 30 845 24.95 10.5 50.9 33 -5.1 22.7
17:30 1016 30 845 24.95 10.4 50.7 34 -4.9 23.1
17:35 1016 30 845 24.95 10 50 35 -4.7 23.5
17:40 1016 30 846 24.98 10 50.1 36 -4.4 24.1
17:45 1016 30 846 24.98 9.5 49.1 41 -2.9 26.8
17:50 1016 30 846 24.98 9.1 48.5 42 -3 26.6
17:55 1016 30 846 24.98 9 48.2 45 -2.4 27.7
18:00 1016 30 846 24.98 8.6 47.5 46 -2.4 27.7
18:05 1017 30.03 846 24.98 8.5 47.2 45 -2.8 27
18:10 1017 30.03 846 24.98 8.4 47 48 -1.9 28.6
18:15 1017 30.03 846 24.98 7.9 46.3 49 -2.1 28.2
18:20 1017 30.03 846 24.98 8 46.4 47 -2.6 27.3
18:25 1017 30.03 846 24.98 8.2 46.7 47 -2.6 27.3
18:30 1016 30 846 24.98 8.1 46.5 46 -2.9 26.8
18:35 1016 30 846 24.98 8.2 46.7 44 -3.5 25.8
18:40 1016 30 846 24.98 8.6 47.5 35 -5.9 21.4
18:45 1016 30 846 24.98 9.2 48.6 38 -4.2 24.4
18:50 1016 30 846 24.98 8.8 47.8 44 -2.8 26.9
18:55 1016 30 846 24.98 8.4 47.1 44 -3.2 26.3
19:00 1017 30.03 846 24.98 8.2 46.8 46 -2.7 27.1
19:05 1017 30.03 846 24.98 8.1 46.6 47 -2.6 27.4
19:10 1017 30.03 846 24.98 7.9 46.2 48 -2.3 27.8
19:15 1017 30.03 846 24.98 7.7 45.8 49 -2.4 27.6
19:20 1017 30.03 846 24.98 7.6 45.7 49 -2.4 27.7
19:25 1017 30.03 846 24.98 7.6 45.6 49 -2.3 27.8
19:30 1017 30.03 846 24.98 7.4 45.2 51 -2.2 28
19:35 1017 30.03 846 24.98 7.2 44.9 51 -2.3 27.8
19:40 1017 30.03 846 24.98 7.1 44.9 50 -2.6 27.2
19:45 1017 30.03 846 24.98 7.3 45.1 49 -2.8 26.9
19:50 1017 30.03 846 24.98 7.3 45.1 48 -2.9 26.7
19:55 1017 30.03 846 24.98 7.3 45.1 48 -3 26.5
20:00 1017 30.03 846 24.98 7.3 45.2 46 -3.5 25.6
20:05 1017 30.03 846 24.98 7.6 45.6 45 -3.6 25.6
20:10 1017 30.03 846 24.98 7.4 45.3 46 -3.3 26
20:15 1017 30.03 846 24.98 7.2 45 47 -3.3 26.1
20:20 1017 30.03 847 25.01 6.8 44.3 49 -3 26.6
20:25 1017 30.03 847 25.01 6.3 43.3 51 -3 26.6
20:30 1017 30.03 847 25.01 6 42.8 52 -3.2 26.3
20:35 1017 30.03 847 25.01 5.9 42.7 52 -3.2 26.2
20:40 1017 30.03 847 25.01 5.9 42.5 52 -3.2 26.3
20:45 1017 30.03 847 25.01 5.7 42.2 53 -3.1 26.4
20:50 1017 30.03 847 25.01 5.5 42 53 -3.2 26.2
20:55 1017 30.03 847 25.01 5.5 41.9 53 -3.2 26.2
21:00 1018 30.06 847 25.01 5.6 42 52 -3.4 25.9
21:05 1018 30.06 847 25.01 5.8 42.5 53 -3.1 26.3
21:10 1018 30.06 847 25.01 5.5 41.9 55 -2.9 26.8
21:15 1018 30.06 847 25.01 5.3 41.5 53 -3.5 25.7
21:20 1018 30.06 847 25.01 5.5 41.9 53 -3.4 25.9
21:25 1018 30.06 847 25.01 5.4 41.8 53 -3.4 25.8
21:30 1018 30.06 847 25.01 5.4 41.6 53 -3.4 25.9
21:35 1018 30.06 847 25.01 5.2 41.4 54 -3.2 26.2
21:40 1018 30.06 847 25.01 5.1 41.1 55 -3.2 26.2
21:45 1018 30.06 847 25.01 4.9 40.9 56 -3.1 26.3
21:50 1018 30.06 847 25.01 4.8 40.6 56 -3.2 26.2
21:55 1018 30.06 847 25.01 4.8 40.7 56 -3.1 26.3
22:00 1018 30.06 847 25.01 4.9 40.8 57 -2.9 26.9
22:05 1018 30.06 847 25.01 5 40.9 57 -3 26.7
22:10 1018 30.06 847 25.01 5 41 57 -2.8 26.9
22:15 1018 30.06 847 25.01 4.8 40.6 57 -3.1 26.5
22:20 1018 30.06 847 25.01 4.6 40.2 57 -3.2 26.3
22:25 1018 30.06 847 25.01 4.4 39.8 59 -3 26.5
22:30 1018 30.06 847 25.01 4.4 39.9 59 -3 26.7
22:35 1018 30.06 847 25.01 4.1 39.4 61 -2.8 26.9
22:40 1018 30.06 847 25.01 4 39.2 61 -2.9 26.8
22:45 1018 30.06 847 25.01 3.9 39 61 -3 26.6
22:50 1018 30.06 847 25.01 4 39.2 60 -3.1 26.4
22:55 1018 30.06 847 25.01 4.4 39.8 59 -3 26.5
23:00 1018 30.06 847 25.01 4.3 39.7 58 -3.2 26.3
23:05 1018 30.06 847 25.01 4.2 39.5 59 -3.2 26.3
23:10 1018 30.06 847 25.01 3.9 39 60 -3.1 26.4
23:15 1018 30.06 847 25.01 3.8 38.8 60 -3.3 26.1
23:20 1018 30.06 847 25.01 3.8 38.8 62 -2.9 26.8
23:25 1018 30.06 847 25.01 3.5 38.2 62 -3.1 26.5
23:30 1018 30.06 847 25.01 3.4 38.1 63 -3 26.6
23:35 1018 30.06 847 25.01 3 37.3 64 -3.2 26.2
23:40 1018 30.06 847 25.01 2.8 37 64 -3.3 26.1
23:45 1018 30.06 847 25.01 2.6 36.7 65 -3.3 26
23:50 1018 30.06 847 25.01 2.6 36.6 64 -3.6 25.5
23:55 1018 30.06 847 25.01 2.5 36.6 65 -3.5 25.8
24:00 1018 30.06 847 25.01 2.4 36.3 65 -3.6 25.4